ADDS METAR Data INFO
IDs: Format: Raw Decoded Include TAF

Data at: 2355 UTC 16 Oct 2017

KTOR 162353Z AUTO 34009KT 10SM CLR 19/M09 A3014 RMK AO2 SLP199 T01891089 10256 20189 51005
KTOR 162253Z AUTO 34012G18KT 10SM CLR 22/M11 A3013 RMK AO2 SLP189 T02221106
KTOR 162153Z AUTO 34010KT 10SM CLR 22/M12 A3013 RMK AO2 SLP190 T02221122
KTOR 162053Z AUTO 31011KT 10SM CLR 25/M12 A3012 RMK AO2 SLP182 T02501122 56017
KTOR 161953Z AUTO 28008KT 10SM CLR 23/M12 A3013 RMK AO2 SLP185 T02331117
KTOR 161853Z AUTO 29014G22KT 10SM CLR 23/M12 A3016 RMK AO2 SLP196 T02331122
KTOR 161753Z AUTO 30007KT 10SM CLR 21/M07 A3018 RMK AO2 SLP203 T02061067 10211 21033 58015
KTOR 161653Z AUTO 00000KT 10SM CLR 14/M02 A3019 RMK AO2 SLP216 T01441022
KTOR 161553Z AUTO 00000KT 10SM CLR 09/M02 A3022 RMK AO2 SLP237 T00891022
KTOR 161453Z AUTO 08003KT 10SM CLR 03/M02 A3023 RMK AO2 SLP242 T00281017 56003
KTOR 161353Z AUTO 00000KT 10SM CLR M02/M05 A3023 RMK AO2 SLP249 T10221050
KTOR 161253Z AUTO 00000KT 10SM CLR M02/M05 A3023 RMK AO2 SLP244 T10221050
KTOR 161153Z AUTO 00000KT 10SM CLR M02/M05 A3024 RMK AO2 SLP242 T10221050 10028 21022 56008
KTOR 161053Z AUTO 00000KT 10SM CLR M02/M05 A3025 RMK AO2 SLP242 T10171050
KTOR 160953Z AUTO 00000KT 10SM CLR M01/M04 A3025 RMK AO2 SLP241 T10111044
KTOR 160853Z AUTO 10004KT 10SM CLR M02/M04 A3026 RMK AO2 SLP248 T10171044 56012
KTOR 160753Z AUTO 00000KT 10SM CLR 01/M04 A3028 RMK AO2 SLP248 T00061039
KTOR 160653Z AUTO 12006KT 10SM CLR 00/M04 A3029 RMK AO2 SLP256 T00001039 401721067
KTOR 160553Z AUTO 13006KT 10SM CLR 01/M04 A3030 RMK AO2 SLP262 T00111039 10144 21006 58008
KTOR 160453Z AUTO 15007KT 10SM CLR 04/M04 A3031 RMK AO2 SLP260 T00441039
KTOR 160353Z AUTO 11007KT 10SM CLR 03/M04 A3033 RMK AO2 SLP280 T00331039
KTOR 160253Z AUTO 12007KT 10SM CLR 07/M04 A3033 RMK AO2 SLP284 T00721044 50004
KTOR 160153Z AUTO 13006KT 10SM CLR 08/M05 A3033 RMK AO2 SLP290 T00831050
KTOR 160053Z AUTO 13003KT 10SM CLR 12/M06 A3032 RMK AO2 SLP281 T01171061
KTOR 152353Z AUTO 09003KT 10SM CLR 14/M07 A3032 RMK AO2 SLP278 T01441067 10172 20133 56011
KTOR 152253Z AUTO 00000KT 10SM CLR 16/M08 A3032 RMK AO2 SLP273 T01611078
KTOR 152153Z AUTO VRB04KT 10SM CLR 17/M08 A3034 RMK AO2 SLP279 T01671078
KTOR 152053Z AUTO VRB05KT 10SM CLR 16/M08 A3035 RMK AO2 SLP285 T01561083 58018
KTOR 151953Z AUTO 28008KT 10SM CLR 16/M08 A3037 RMK AO2 SLP290 T01561078
KTOR 151853Z AUTO 32011G15KT 10SM CLR 14/M08 A3040 RMK AO2 SLP299 T01441078
KTOR 151753Z AUTO 31008KT 10SM CLR 13/M08 A3041 RMK AO2 SLP302 T01331078 10133 21067 58001
KTOR 151653Z AUTO 30011KT 10SM CLR 12/M06 A3042 RMK AO2 SLP308 T01171061
KTOR 151553Z AUTO 34007KT 10SM CLR 06/M04 A3042 RMK AO2 SLP317 T00561044
KTOR 151453Z AUTO 27004KT 10SM CLR M01/M04 A3042 RMK AO2 SLP329 T10061039 53021
KTOR 151353Z AUTO 27005KT 10SM CLR M04/M06 A3040 RMK AO2 SLP322 T10441061
KTOR 151253Z AUTO 28007KT 10SM CLR M05/M06 A3037 RMK AO2 SLP310 T10501061